Time;durP1;ratioP1;P1;durP2;ratioP2;P2;SDS_P1;SDS_P2;PMS_P1;PMS_P2;Temp;Humidity;BMP_temperature;BMP_pressure;BME280_temperature;BME280_humidity;BME280_pressure;Samples;Min_cycle;Max_cycle;Signal;HPM_P1;HPM_P2
2022/05/22 00:29:44;;;;;;;;;;;;;;;;;;;;;
2022/05/22 00:40:07;;;;;;;4.93;3.55;;;15.50;61.00;;;;;;5073360;28;20605;-88
2022/05/22 02:25:42;;;;;;;6.88;3.30;;;14.40;73.30;;;;;;4968774;29;20350;-89
2022/05/22 08:18:44;;;;;;;3.38;1.50;;;19.20;28.00;;;;;;5039554;28;20237;-89
2022/05/22 08:21:30;;;;;;;3.30;1.90;;;19.30;28.60;;;;;;5014359;28;20203;-89
2022/05/22 08:24:00;;;;;;;5.00;1.63;;;19.70;27.20;;;;;;5006825;28;20544;-90
2022/05/22 08:26:42;;;;;;;4.38;1.67;;;20.70;25.40;;;;;;5020223;28;20207;-90
2022/05/22 08:29:24;;;;;;;3.53;1.55;;;21.60;23.20;;;;;;5023613;28;20222;-90
2022/05/22 08:31:51;;;;;;;2.33;1.52;;;21.90;23.00;;;;;;5027458;28;21304;-90
2022/05/22 08:34:20;;;;;;;2.03;1.50;;;21.80;20.90;;;;;;5025253;28;20208;-90
2022/05/22 08:36:48;;;;;;;2.97;1.40;;;21.90;20.50;;;;;;5027646;28;20207;-90
2022/05/22 08:39:19;;;;;;;2.17;1.42;;;22.10;19.50;;;;;;5030095;28;20203;-89
2022/05/22 08:41:48;;;;;;;2.63;1.50;;;22.40;19.20;;;;;;5034433;28;20234;-85
2022/05/22 08:44:30;;;;;;;3.55;1.77;;;23.00;17.90;;;;;;5020837;28;20199;-83
2022/05/22 08:47:01;;;;;;;1.67;1.58;;;24.00;18.10;;;;;;5027120;28;20217;-83
2022/05/22 08:49:32;;;;;;;1.75;1.48;;;26.60;14.90;;;;;;5043926;28;20245;-80
2022/05/22 08:52:05;;;;;;;7.20;6.45;;;27.90;12.30;;;;;;5043760;28;20208;-80
2022/05/22 08:54:41;;;;;;;3.55;2.55;;;30.10;9.50;;;;;;5038773;28;20588;-81
2022/05/22 09:00:09;;;;;;;4.57;2.78;;;31.50;6.00;;;;;;5028012;28;20292;-83
2022/05/22 09:02:42;;;;;;;3.38;2.30;;;32.50;6.20;;;;;;5025198;28;20213;-83
2022/05/22 09:05:14;;;;;;;2.47;2.28;;;31.50;6.90;;;;;;5026284;28;20204;-86
2022/05/22 09:07:53;;;;;;;4.72;2.30;;;31.70;7.00;;;;;;5020574;28;20199;-84
2022/05/22 09:10:33;;;;;;;2.58;2.20;;;32.00;6.80;;;;;;5034232;28;20697;-87
2022/05/22 09:13:11;;;;;;;2.60;2.40;;;31.70;7.00;;;;;;5010833;28;20575;-84
2022/05/22 09:15:46;;;;;;;4.35;2.30;;;31.50;6.10;;;;;;5021261;28;20190;-84
2022/05/22 09:18:20;;;;;;;2.92;2.67;;;31.20;6.00;;;;;;5027871;28;20309;-84
2022/05/22 09:20:57;;;;;;;2.60;2.40;;;31.20;6.90;;;;;;5029806;28;20214;-83
2022/05/22 09:23:41;;;;;;;3.60;3.08;;;32.00;5.20;;;;;;5025317;28;20202;-84
2022/05/22 09:26:42;;;;;;;4.40;3.80;;;32.00;5.20;;;;;;5021748;28;20199;-83
2022/05/22 09:29:26;;;;;;;7.03;6.35;;;32.30;5.40;;;;;;5022978;28;20237;-82
2022/05/22 09:32:04;;;;;;;4.15;2.90;;;33.00;5.00;;;;;;5030356;28;20692;-82
2022/05/22 09:34:51;;;;;;;3.83;3.53;;;32.80;5.60;;;;;;5023526;28;20210;-85
2022/05/22 09:37:48;;;;;;;5.38;4.07;;;33.50;3.90;;;;;;5017027;28;20210;-85
2022/05/22 09:40:35;;;;;;;3.70;3.15;;;35.30;3.40;;;;;;5024509;28;20571;-86
2022/05/22 09:43:35;;;;;;;3.75;2.85;;;36.40;1.80;;;;;;5019435;28;20272;-84
2022/05/22 09:46:33;;;;;;;4.50;4.10;;;35.20;1.00;;;;;;5019374;28;20667;-84
2022/05/22 09:49:20;;;;;;;3.90;3.08;;;34.70;4.30;;;;;;5024281;28;20298;-81
2022/05/22 09:52:00;;;;;;;3.17;2.88;;;33.90;3.60;;;;;;5018927;28;20209;-82
2022/05/22 09:54:50;;;;;;;4.47;2.70;;;31.20;5.50;;;;;;5023244;28;20649;-81
2022/05/22 09:57:30;;;;;;;3.78;3.10;;;32.00;7.10;;;;;;5036925;28;20212;-82
2022/05/22 10:00:33;;;;;;;3.13;2.80;;;33.10;4.30;;;;;;5022775;28;20210;-84
2022/05/22 10:03:08;;;;;;;4.65;3.10;;;33.60;4.00;;;;;;5016302;28;20210;-84
2022/05/22 10:05:45;;;;;;;6.82;3.40;;;33.60;4.30;;;;;;5019077;28;20202;-83
2022/05/22 10:08:22;;;;;;;7.10;5.30;;;33.00;4.60;;;;;;5024615;28;20594;-84
2022/05/22 10:11:13;;;;;;;3.58;3.22;;;33.90;6.30;;;;;;5022175;28;20198;-84
2022/05/22 10:14:20;;;;;;;3.97;3.55;;;34.60;3.30;;;;;;5024933;28;20264;-83
2022/05/22 10:16:58;;;;;;;3.88;3.53;;;35.40;3.20;;;;;;5017786;28;20217;-83
2022/05/22 10:19:38;;;;;;;4.13;3.83;;;35.10;2.70;;;;;;5025048;28;20206;-83
2022/05/22 10:22:14;;;;;;;6.88;4.47;;;35.50;1.80;;;;;;5024668;28;20233;-86
2022/05/22 10:28:18;;;;;;;4.40;3.17;;;34.40;3.50;;;;;;5021059;28;20325;-86
2022/05/22 10:31:08;;;;;;;7.25;3.13;;;33.80;3.00;;;;;;5028549;28;20229;-86
2022/05/22 10:34:10;;;;;;;3.10;2.90;;;33.60;2.50;;;;;;5022927;28;20206;-86
2022/05/22 10:37:11;;;;;;;3.70;2.92;;;34.30;4.10;;;;;;5024741;28;20201;-84
2022/05/22 10:39:48;;;;;;;3.08;2.78;;;34.30;2.20;;;;;;5025859;28;20689;-84
2022/05/22 10:42:49;;;;;;;3.17;2.72;;;34.40;4.90;;;;;;5016189;28;20214;-85
2022/05/22 10:45:32;;;;;;;3.20;2.90;;;33.80;4.30;;;;;;5020418;28;20641;-84
2022/05/22 10:48:10;;;;;;;5.15;2.60;;;32.80;8.10;;;;;;5025094;28;20214;-84
2022/05/22 10:50:52;;;;;;;3.10;2.80;;;32.00;6.60;;;;;;5021810;28;20221;-84
2022/05/22 10:53:31;;;;;;;3.00;2.45;;;31.50;5.30;;;;;;5023068;28;20626;-84
2022/05/22 10:56:03;;;;;;;3.33;2.70;;;32.00;6.70;;;;;;5021378;28;20669;-84
2022/05/22 10:58:52;;;;;;;2.45;2.20;;;32.10;5.80;;;;;;5032965;28;20199;-84
2022/05/22 11:01:22;;;;;;;2.65;2.30;;;32.20;6.40;;;;;;5029702;28;20198;-84
2022/05/22 11:04:05;;;;;;;3.45;2.28;;;32.00;6.20;;;;;;5021399;28;20195;-83
2022/05/22 11:06:33;;;;;;;3.40;2.17;;;30.70;9.10;;;;;;5022820;28;20257;-84
2022/05/22 11:09:00;;;;;;;5.18;2.30;;;30.00;9.40;;;;;;5020760;28;20210;-84
2022/05/22 11:11:38;;;;;;;3.72;1.88;;;29.30;10.90;;;;;;5022384;28;20350;-84
2022/05/22 11:14:11;;;;;;;2.92;1.88;;;28.70;7.30;;;;;;5021804;28;20199;-83
2022/05/22 11:16:40;;;;;;;5.43;2.10;;;27.80;9.20;;;;;;5023996;28;20585;-83
2022/05/22 11:19:24;;;;;;;2.08;1.67;;;27.50;10.50;;;;;;5027804;28;20210;-83
2022/05/22 11:22:13;;;;;;;3.78;1.75;;;27.00;8.00;;;;;;5023008;28;20194;-85
2022/05/22 11:24:48;;;;;;;2.38;1.75;;;26.70;10.20;;;;;;5029970;28;20546;-85
2022/05/22 11:27:53;;;;;;;3.50;2.17;;;26.40;13.00;;;;;;5032921;28;20193;-85
2022/05/22 11:30:44;;;;;;;6.13;2.67;;;25.90;14.60;;;;;;5024379;28;20219;-84
2022/05/22 11:33:37;;;;;;;4.65;2.13;;;25.90;14.60;;;;;;5025593;28;20198;-84
2022/05/22 11:36:33;;;;;;;2.30;1.83;;;25.60;14.50;;;;;;5008999;28;20273;-87
2022/05/22 11:39:23;;;;;;;3.55;2.22;;;25.10;17.10;;;;;;5041844;28;20195;-87
2022/05/22 11:42:00;;;;;;;4.03;1.85;;;25.30;14.30;;;;;;5026816;28;20234;-87
2022/05/22 11:45:01;;;;;;;2.85;2.20;;;25.30;14.30;;;;;;5015504;28;20213;-87
2022/05/22 11:47:52;;;;;;;3.85;1.88;;;25.50;13.70;;;;;;5034720;28;20201;-85
2022/05/22 11:50:38;;;;;;;2.17;1.73;;;25.50;14.40;;;;;;4981554;28;20228;-85
2022/05/22 11:53:37;;;;;;;7.90;6.90;;;25.60;14.40;;;;;;4987996;28;20228;-85
2022/05/22 11:56:20;;;;;;;3.72;2.03;;;25.30;14.30;;;;;;4989537;28;20204;-85
2022/05/22 11:58:57;;;;;;;3.00;1.70;;;25.60;14.50;;;;;;4993016;28;20735;-85
2022/05/22 12:01:31;;;;;;;3.08;1.58;;;25.90;10.40;;;;;;4986314;28;20634;-84
2022/05/22 12:04:37;;;;;;;1.92;1.50;;;25.60;9.30;;;;;;4987089;28;20726;-85
2022/05/22 12:07:34;;;;;;;1.30;1.20;;;25.20;10.60;;;;;;4986944;28;20205;-87
2022/05/22 12:10:17;;;;;;;2.85;1.70;;;24.70;10.80;;;;;;4994324;28;20703;-87
2022/05/22 12:13:10;;;;;;;2.42;1.70;;;24.80;12.70;;;;;;4979864;28;20212;-88
2022/05/22 12:15:44;;;;;;;2.00;1.80;;;25.00;13.90;;;;;;4994707;28;20227;-85
2022/05/22 12:18:25;;;;;;;3.90;1.60;;;25.20;14.20;;;;;;4992016;28;20223;-85
2022/05/22 12:21:36;;;;;;;4.18;3.75;;;25.30;14.30;;;;;;4992179;28;20239;-85
2022/05/22 12:24:20;;;;;;;2.83;1.60;;;24.90;14.10;;;;;;5000725;28;20313;-85
2022/05/22 12:27:02;;;;;;;5.20;1.80;;;25.20;14.30;;;;;;5007052;28;20261;-85
2022/05/22 12:29:35;;;;;;;2.28;1.70;;;25.30;14.30;;;;;;5037111;28;20278;-85
2022/05/22 12:32:10;;;;;;;2.40;1.60;;;25.40;14.30;;;;;;5036308;28;20217;-85
2022/05/22 12:34:56;;;;;;;2.40;1.52;;;25.50;12.40;;;;;;5039994;28;20206;-85
2022/05/22 12:37:31;;;;;;;2.60;1.60;;;25.70;13.80;;;;;;5037515;28;20207;-85
2022/05/22 12:40:17;;;;;;;1.83;1.50;;;25.70;14.40;;;;;;5024406;28;20205;-85
2022/05/22 12:42:50;;;;;;;2.60;1.58;;;25.90;14.60;;;;;;5040567;28;20846;-85
2022/05/22 12:45:18;;;;;;;8.95;7.18;;;25.90;11.00;;;;;;5041003;28;20213;-85
2022/05/22 12:47:57;;;;;;;2.58;1.65;;;25.60;10.70;;;;;;5035195;28;20207;-85
2022/05/22 12:50:33;;;;;;;3.45;1.75;;;25.50;13.30;;;;;;5025627;28;20686;-85
2022/05/22 12:53:01;;;;;;;2.80;1.63;;;25.40;14.30;;;;;;5044843;28;20198;-85
2022/05/22 12:55:34;;;;;;;3.67;1.60;;;25.30;13.40;;;;;;5039419;28;20205;-85
2022/05/22 12:58:07;;;;;;;2.38;1.70;;;25.30;14.30;;;;;;5044400;28;20198;-84
2022/05/22 13:00:55;;;;;;;5.22;1.90;;;25.00;14.20;;;;;;5044138;28;20231;-87
2022/05/22 13:03:50;;;;;;;2.47;1.65;;;24.90;14.10;;;;;;5037366;28;20621;-85
2022/05/22 13:06:34;;;;;;;1.75;1.50;;;24.90;14.20;;;;;;5029655;28;20207;-86
2022/05/22 13:09:23;;;;;;;2.40;1.80;;;25.00;14.20;;;;;;5037174;28;20685;-87
2022/05/22 13:12:09;;;;;;;2.03;1.50;;;24.60;16.90;;;;;;5034470;28;20198;-86
2022/05/22 13:14:41;;;;;;;3.50;1.80;;;24.80;14.10;;;;;;5037751;28;20210;-87
2022/05/22 13:17:10;;;;;;;1.58;1.48;;;25.00;12.50;;;;;;5030394;28;20242;-87
2022/05/22 13:19:48;;;;;;;2.75;1.55;;;25.20;13.00;;;;;;5040470;28;20215;-86
2022/05/22 13:22:28;;;;;;;1.63;1.33;;;25.00;11.80;;;;;;5043513;28;20205;-87
2022/05/22 13:24:56;;;;;;;2.33;1.50;;;24.90;12.70;;;;;;5036184;28;20206;-85
2022/05/22 13:28:02;;;;;;;2.40;1.40;;;25.10;11.40;;;;;;5029626;28;20196;-85
2022/05/22 13:30:42;;;;;;;2.05;1.40;;;25.10;12.50;;;;;;5029739;28;20226;-87
2022/05/22 13:33:30;;;;;;;1.92;1.33;;;25.00;11.40;;;;;;5029942;28;20233;-87
2022/05/22 13:36:00;;;;;;;2.28;1.42;;;24.90;12.00;;;;;;5031155;28;20278;-87
2022/05/22 13:38:52;;;;;;;2.15;1.50;;;24.90;11.30;;;;;;5036379;28;20203;-87
2022/05/22 13:42:02;;;;;;;1.52;1.42;;;25.00;13.20;;;;;;5042051;28;20227;-85
2022/05/22 13:45:11;;;;;;;2.88;1.60;;;25.20;11.90;;;;;;5028269;28;20607;-85
2022/05/22 13:47:59;;;;;;;2.33;1.60;;;25.10;10.20;;;;;;5036718;28;20213;-85
2022/05/22 13:54:00;;;;;;;3.13;1.55;;;25.20;11.20;;;;;;5025923;28;20198;-85
2022/05/22 13:56:40;;;;;;;4.93;4.47;;;25.40;13.70;;;;;;5041453;28;20217;-85
2022/05/22 13:59:23;;;;;;;3.28;2.60;;;25.40;12.00;;;;;;5037261;28;20218;-85
2022/05/22 14:01:52;;;;;;;3.88;2.13;;;25.30;9.90;;;;;;5034710;28;20200;-85
2022/05/22 14:04:24;;;;;;;5.22;4.72;;;25.20;11.80;;;;;;5030156;28;20226;-86
2022/05/22 14:07:09;;;;;;;2.80;1.70;;;25.10;13.10;;;;;;5024378;28;20286;-88
2022/05/22 14:09:40;;;;;;;4.88;2.78;;;25.00;12.80;;;;;;5020441;28;20203;-88
2022/05/22 14:12:24;;;;;;;2.13;1.45;;;25.00;11.90;;;;;;5030053;28;20565;-85
2022/05/22 14:14:51;;;;;;;2.83;1.30;;;25.00;12.50;;;;;;5030049;28;20207;-85
2022/05/22 14:17:29;;;;;;;4.10;1.80;;;25.00;12.30;;;;;;5035461;28;20217;-85
2022/05/22 14:20:08;;;;;;;3.85;1.80;;;24.90;13.80;;;;;;5030408;28;20195;-86
2022/05/22 14:22:35;;;;;;;4.55;1.52;;;24.80;14.10;;;;;;5029367;28;20199;-87
2022/05/22 14:25:24;;;;;;;3.78;1.70;;;24.80;14.10;;;;;;5022357;28;20658;-87
2022/05/22 14:27:53;;;;;;;1.65;1.55;;;24.50;13.90;;;;;;5025650;28;20199;-88
2022/05/22 14:30:33;;;;;;;2.08;1.60;;;24.70;14.00;;;;;;5022072;28;20315;-88
2022/05/22 14:33:12;;;;;;;2.67;1.83;;;24.70;12.10;;;;;;5026099;28;20248;-86
2022/05/22 14:35:44;;;;;;;2.38;1.80;;;24.70;12.30;;;;;;5027138;28;20235;-86
2022/05/22 14:38:17;;;;;;;2.70;2.28;;;24.70;13.20;;;;;;5022125;28;20200;-85
2022/05/22 14:40:52;;;;;;;2.80;2.55;;;24.70;14.00;;;;;;5030773;28;20219;-87
2022/05/22 14:43:22;;;;;;;4.28;2.78;;;24.90;13.40;;;;;;5030259;28;20206;-87
2022/05/22 14:45:57;;;;;;;2.38;1.75;;;24.90;13.00;;;;;;5034957;28;20237;-88
2022/05/22 14:48:29;;;;;;;3.90;2.08;;;24.90;11.10;;;;;;5027973;28;20607;-87
2022/05/22 14:51:29;;;;;;;2.08;1.55;;;25.00;11.20;;;;;;5026471;28;20227;-87
2022/05/22 14:54:08;;;;;;;2.05;1.50;;;24.90;10.10;;;;;;5019513;28;20195;-88
2022/05/22 14:56:37;;;;;;;2.53;1.38;;;25.00;11.10;;;;;;5037494;28;20202;-88
2022/05/22 14:59:32;;;;;;;1.65;1.52;;;25.00;11.40;;;;;;5033141;28;20610;-87
2022/05/22 15:02:15;;;;;;;5.53;3.35;;;24.90;13.00;;;;;;5025023;28;20206;-88
2022/05/22 15:04:56;;;;;;;4.50;1.70;;;24.90;14.10;;;;;;5030213;28;20203;-87
2022/05/22 15:07:27;;;;;;;2.55;1.85;;;24.70;14.00;;;;;;5022165;28;20202;-87
2022/05/22 15:09:56;;;;;;;2.60;2.33;;;24.60;14.00;;;;;;5009546;28;20267;-87
2022/05/22 15:12:54;;;;;;;2.13;1.83;;;24.50;13.90;;;;;;5025389;28;20203;-87
2022/05/22 15:15:28;;;;;;;6.97;5.18;;;24.40;13.80;;;;;;5033750;28;20203;-87
2022/05/22 15:18:03;;;;;;;3.10;2.15;;;24.20;13.70;;;;;;5025561;28;20256;-87
2022/05/22 15:20:45;;;;;;;6.30;5.72;;;24.20;14.20;;;;;;5032036;28;20204;-87
2022/05/22 15:26:17;;;;;;;5.05;2.05;;;24.20;13.70;;;;;;5021425;28;20214;-89
2022/05/22 15:28:49;;;;;;;2.92;2.38;;;24.10;13.60;;;;;;5023739;28;20198;-89
2022/05/22 15:31:26;;;;;;;4.93;1.92;;;24.10;13.60;;;;;;5031850;28;20233;-90
2022/05/22 15:33:56;;;;;;;2.50;1.70;;;24.10;13.60;;;;;;5024169;28;20202;-89
2022/05/22 15:36:33;;;;;;;3.58;1.80;;;24.00;13.50;;;;;;5034802;28;20206;-89
2022/05/22 15:39:04;;;;;;;3.03;1.95;;;23.90;14.40;;;;;;5029551;28;20210;-89
2022/05/22 15:41:35;;;;;;;1.92;1.73;;;23.90;14.00;;;;;;5021426;28;20226;-89
2022/05/22 15:44:24;;;;;;;5.30;4.40;;;23.80;13.90;;;;;;5027127;28;20198;-89
2022/05/22 15:47:03;;;;;;;14.43;11.48;;;23.70;15.70;;;;;;5021058;28;20261;-89
2022/05/22 15:52:21;;;;;;;4.38;2.08;;;23.90;15.70;;;;;;5025034;28;20242;-88
2022/05/22 15:55:08;;;;;;;3.92;1.85;;;23.90;14.40;;;;;;5023366;28;20818;-89
2022/05/22 15:57:35;;;;;;;5.00;2.28;;;23.80;13.60;;;;;;5026255;28;20203;-89
2022/05/22 16:00:19;;;;;;;3.75;2.15;;;23.90;13.50;;;;;;5030706;28;20207;-89
2022/05/22 16:02:48;;;;;;;2.10;1.73;;;24.10;13.70;;;;;;5022926;28;20598;-89
2022/05/22 16:05:21;;;;;;;2.67;1.85;;;24.10;13.60;;;;;;5027980;28;20203;-88
2022/05/22 16:08:02;;;;;;;4.43;1.90;;;24.10;13.90;;;;;;5025694;28;20205;-89
2022/05/22 16:10:37;;;;;;;4.00;2.60;;;24.00;13.60;;;;;;5020762;28;20704;-89
2022/05/22 16:13:04;;;;;;;3.72;1.88;;;23.80;14.20;;;;;;5024134;28;20216;-89
2022/05/22 16:15:30;;;;;;;25.65;22.88;;;23.70;13.40;;;;;;5031060;28;20218;-88
2022/05/22 16:18:01;;;;;;;3.10;2.80;;;23.60;13.80;;;;;;5034767;28;20574;-88
2022/05/22 16:20:43;;;;;;;6.00;1.67;;;23.70;13.30;;;;;;5029914;28;20642;-88
2022/05/22 16:23:14;;;;;;;2.72;2.00;;;23.80;13.40;;;;;;5027437;28;20209;-88
2022/05/22 16:25:44;;;;;;;3.80;2.10;;;23.80;14.00;;;;;;5024598;28;20633;-88
2022/05/22 16:28:11;;;;;;;2.75;1.73;;;23.90;13.50;;;;;;5024179;28;20202;-88
2022/05/22 16:30:38;;;;;;;9.13;6.10;;;23.90;13.50;;;;;;5024870;28;20227;-88
2022/05/22 16:33:05;;;;;;;2.33;1.80;;;23.80;13.40;;;;;;5023658;28;20206;-88
2022/05/22 16:36:00;;;;;;;6.53;5.63;;;23.80;13.40;;;;;;5027879;28;20211;-88
2022/05/22 16:38:32;;;;;;;2.22;1.60;;;23.70;13.80;;;;;;5028905;28;20238;-88
2022/05/22 16:41:02;;;;;;;3.47;2.20;;;23.60;14.10;;;;;;5042692;28;20225;-93
2022/05/22 16:43:30;;;;;;;3.97;1.83;;;23.50;13.30;;;;;;4996296;28;20204;-87
2022/05/22 16:46:00;;;;;;;3.88;1.88;;;23.40;13.20;;;;;;5036795;28;20233;-87
2022/05/22 16:53:59;;;;;;;9.18;8.27;;;23.10;14.20;;;;;;4995267;28;20203;-87
2022/05/22 16:56:43;;;;;;;14.32;12.95;;;23.10;15.30;;;;;;4978274;28;20204;-86
2022/05/22 16:59:11;;;;;;;6.75;2.72;;;23.00;15.90;;;;;;4986875;28;20219;-87
2022/05/22 17:01:54;;;;;;;3.63;1.88;;;22.90;14.30;;;;;;4986074;28;20206;-86
2022/05/22 17:04:31;;;;;;;6.53;4.03;;;22.90;14.80;;;;;;4985257;28;20212;-90
2022/05/22 17:07:00;;;;;;;4.13;2.67;;;22.90;14.80;;;;;;4994420;28;20206;-87
2022/05/22 17:09:38;;;;;;;5.13;2.20;;;22.80;14.20;;;;;;4989773;28;20196;-87
2022/05/22 17:12:08;;;;;;;7.65;3.10;;;22.70;14.30;;;;;;4986534;28;20315;-87
2022/05/22 17:14:37;;;;;;;3.30;1.90;;;22.80;14.40;;;;;;4992417;28;20212;-87
2022/05/22 17:17:09;;;;;;;2.17;1.63;;;22.80;14.70;;;;;;4997958;28;20287;-87
2022/05/22 17:19:36;;;;;;;7.47;6.70;;;22.80;14.50;;;;;;4987892;28;20220;-86
2022/05/22 17:22:15;;;;;;;3.38;2.65;;;22.70;15.90;;;;;;4989373;28;20223;-86
2022/05/22 17:24:47;;;;;;;8.55;7.55;;;22.70;15.20;;;;;;4994840;28;20343;-88
2022/05/22 17:27:39;;;;;;;6.57;5.30;;;22.60;15.70;;;;;;4985173;28;20284;-89
2022/05/22 17:30:15;;;;;;;3.95;1.90;;;22.60;15.60;;;;;;4986750;28;20200;-89
2022/05/22 17:32:42;;;;;;;2.53;1.85;;;22.50;15.20;;;;;;5002465;28;20222;-88
2022/05/22 17:35:26;;;;;;;4.15;1.77;;;22.40;15.30;;;;;;5034237;28;20750;-88
2022/05/22 17:37:57;;;;;;;2.22;1.60;;;22.40;16.10;;;;;;5041602;28;20198;-87
2022/05/22 17:41:04;;;;;;;3.97;1.80;;;22.30;16.30;;;;;;5016357;28;20275;-90
2022/05/22 17:43:43;;;;;;;107.00;96.38;;;22.20;16.40;;;;;;5032812;28;20297;-90
2022/05/22 17:46:25;;;;;;;218.50;197.98;;;22.30;17.60;;;;;;5031205;28;20206;-89
2022/05/22 17:49:01;;;;;;;13.85;12.55;;;22.20;18.80;;;;;;5037366;28;20273;-89
2022/05/22 17:51:30;;;;;;;5.03;4.00;;;22.20;17.30;;;;;;5029201;28;20293;-88
2022/05/22 17:53:57;;;;;;;3.55;1.75;;;22.10;17.00;;;;;;5025400;28;20214;-88
2022/05/22 17:56:25;;;;;;;4.40;1.83;;;22.10;18.00;;;;;;5031859;28;20285;-89
2022/05/22 17:59:24;;;;;;;2.25;1.63;;;22.00;18.40;;;;;;5012096;28;20669;-90
2022/05/22 18:01:53;;;;;;;32.83;29.48;;;21.90;18.90;;;;;;5033624;28;20191;-88
2022/05/22 18:04:26;;;;;;;6.28;5.43;;;21.80;20.70;;;;;;5030473;28;20211;-89
2022/05/22 18:06:56;;;;;;;18.08;16.35;;;21.80;20.00;;;;;;5038956;28;20270;-88
2022/05/22 18:09:25;;;;;;;3.85;2.38;;;21.80;21.80;;;;;;5023659;28;20221;-88
2022/05/22 18:17:32;;;;;;;3.55;1.83;;;21.60;20.90;;;;;;5027201;28;20894;-88
2022/05/22 18:20:14;;;;;;;17.25;15.55;;;21.50;21.00;;;;;;5029133;28;20259;-88
2022/05/22 18:22:44;;;;;;;29.77;26.98;;;21.50;22.70;;;;;;5029787;28;20283;-88
2022/05/22 18:25:33;;;;;;;207.77;187.45;;;21.40;22.20;;;;;;5029923;28;20211;-90
2022/05/22 18:28:20;;;;;;;101.07;65.88;;;21.50;23.90;;;;;;5028230;28;20215;-87
2022/05/22 18:30:56;;;;;;;46.63;41.92;;;21.50;22.60;;;;;;5028139;28;20202;-88
2022/05/22 18:33:31;;;;;;;23.52;21.02;;;21.50;23.20;;;;;;5035774;28;20221;-88
2022/05/22 18:36:00;;;;;;;4.15;3.38;;;21.50;23.80;;;;;;5025637;28;20285;-88
2022/05/22 18:38:27;;;;;;;12.75;11.40;;;21.50;23.20;;;;;;5035648;28;20231;-88
2022/05/22 18:40:55;;;;;;;13.63;12.20;;;21.30;24.20;;;;;;5035762;28;20290;-88
2022/05/22 18:43:23;;;;;;;4.10;3.25;;;21.30;24.20;;;;;;5033082;28;20206;-88
2022/05/22 18:46:09;;;;;;;5.50;4.95;;;21.30;23.50;;;;;;5037972;28;20862;-89
2022/05/22 18:48:43;;;;;;;5.03;4.50;;;21.20;23.80;;;;;;5029346;28;20207;-90
2022/05/22 18:51:14;;;;;;;5.25;3.47;;;21.20;24.20;;;;;;5029538;28;20227;-88
2022/05/22 18:53:49;;;;;;;5.63;2.10;;;21.10;24.30;;;;;;5024587;28;20651;-88
2022/05/22 18:56:22;;;;;;;3.28;2.30;;;21.00;24.80;;;;;;5009443;28;20203;-88
2022/05/22 18:59:04;;;;;;;1.92;1.80;;;20.90;25.30;;;;;;4994071;28;20215;-88
2022/05/22 19:01:38;;;;;;;3.50;2.22;;;20.80;24.40;;;;;;5028754;28;20206;-88
2022/05/22 19:04:22;;;;;;;3.92;2.55;;;20.90;25.30;;;;;;5034887;28;20206;-88
2022/05/22 19:06:50;;;;;;;3.95;2.08;;;20.90;24.50;;;;;;5017053;28;20258;-88
2022/05/22 19:09:19;;;;;;;2.58;2.03;;;20.80;24.60;;;;;;5037116;28;20198;-87
2022/05/22 19:11:59;;;;;;;4.03;2.10;;;20.80;26.10;;;;;;5029069;28;20242;-87
2022/05/22 19:14:36;;;;;;;5.40;2.30;;;20.70;26.80;;;;;;5007805;28;20211;-88
2022/05/22 19:17:34;;;;;;;3.78;2.05;;;20.60;26.00;;;;;;5028403;28;20603;-87
2022/05/22 19:20:42;;;;;;;3.45;2.70;;;20.50;26.90;;;;;;5028710;28;20219;-87
2022/05/22 19:23:35;;;;;;;4.60;2.42;;;20.40;26.30;;;;;;5033343;28;20202;-87
2022/05/22 19:26:11;;;;;;;3.45;2.25;;;20.30;26.90;;;;;;5013071;28;20211;-89
2022/05/22 19:29:01;;;;;;;4.68;2.47;;;20.20;27.00;;;;;;5034842;28;20604;-89
2022/05/22 19:35:29;;;;;;;5.68;2.50;;;20.20;26.20;;;;;;5032963;28;20195;-87
2022/05/22 19:38:05;;;;;;;5.40;2.25;;;20.20;27.00;;;;;;5033765;28;20202;-87
2022/05/22 19:44:06;;;;;;;2.53;2.03;;;20.20;25.80;;;;;;5033655;28;20197;-88
2022/05/22 19:46:39;;;;;;;20.52;15.80;;;20.10;25.70;;;;;;5030410;28;20205;-87
2022/05/22 20:00:25;;;;;;;2.88;1.95;;;19.80;26.20;;;;;;4943575;29;20265;-88
2022/05/22 20:11:59;;;;;;;3.03;1.80;;;19.40;27.90;;;;;;4971278;28;20236;-87
2022/05/22 20:14:44;;;;;;;4.45;3.58;;;19.40;29.70;;;;;;4957583;28;20256;-88
2022/05/22 20:17:43;;;;;;;2.67;2.10;;;19.30;28.40;;;;;;4973171;28;20203;-89
2022/05/22 20:20:17;;;;;;;2.47;1.90;;;19.40;29.60;;;;;;4974723;28;20237;-88
2022/05/22 20:25:45;;;;;;;;;;;;;;;;;;;;;
2022/05/22 20:28:49;;;;;;;6.00;3.30;;;19.40;30.40;;;;;;4970889;29;20209;-89
2022/05/22 20:35:13;;;;;;;4.95;2.33;;;19.40;30.30;;;;;;4983108;28;20208;-88
2022/05/22 20:41:52;;;;;;;2.90;2.20;;;19.30;31.50;;;;;;4983335;28;20236;-88
2022/05/22 20:47:45;;;;;;;4.38;2.25;;;19.30;31.60;;;;;;4963583;28;20201;-88
2022/05/22 20:50:30;;;;;;;2.95;2.15;;;19.30;31.50;;;;;;4984772;28;20212;-88
2022/05/22 20:53:09;;;;;;;2.65;2.20;;;19.30;31.50;;;;;;4988088;28;20284;-90
2022/05/22 21:06:30;;;;;;;4.45;3.47;;;19.30;31.50;;;;;;5033094;28;20198;-90
2022/05/22 21:12:47;;;;;;;4.47;2.47;;;19.40;31.60;;;;;;5024079;28;20362;-88
2022/05/22 21:19:20;;;;;;;4.80;2.40;;;19.20;34.20;;;;;;5033741;28;20201;-89
2022/05/22 21:44:58;;;;;;;5.72;2.08;;;19.10;34.80;;;;;;5045467;28;20626;-90
2022/05/22 21:57:49;;;;;;;3.20;2.00;;;19.00;34.50;;;;;;5021191;28;20204;-90
2022/05/22 22:10:26;;;;;;;2.97;2.10;;;18.80;35.20;;;;;;4945020;29;20233;-90
2022/05/22 22:15:45;;;;;;;1.88;1.73;;;18.80;36.20;;;;;;4912853;29;20209;-88
2022/05/22 22:18:22;;;;;;;4.28;1.92;;;18.80;36.10;;;;;;4939584;29;20206;-90
